sensor_id;sensor_type;location;lat;lon;timestamp;P1;durP1;ratioP1;P2;durP2;ratioP2
19747;SDS011;10032;51.386;12.516;2023-06-04T00:01:56;1.83;;;1.60;;
19747;SDS011;10032;51.386;12.516;2023-06-04T00:04:22;2.53;;;1.80;;
19747;SDS011;10032;51.386;12.516;2023-06-04T00:06:48;6.70;;;1.77;;
19747;SDS011;10032;51.386;12.516;2023-06-04T00:09:14;1.93;;;1.73;;
19747;SDS011;10032;51.386;12.516;2023-06-04T00:11:40;1.90;;;1.70;;
19747;SDS011;10032;51.386;12.516;2023-06-04T00:14:14;2.77;;;1.80;;
19747;SDS011;10032;51.386;12.516;2023-06-04T00:16:40;2.90;;;1.60;;
19747;SDS011;10032;51.386;12.516;2023-06-04T00:19:05;1.90;;;1.70;;
19747;SDS011;10032;51.386;12.516;2023-06-04T00:21:31;2.83;;;1.70;;
19747;SDS011;10032;51.386;12.516;2023-06-04T00:23:57;1.83;;;1.73;;
19747;SDS011;10032;51.386;12.516;2023-06-04T00:26:24;1.77;;;1.67;;
19747;SDS011;10032;51.386;12.516;2023-06-04T00:28:50;3.10;;;2.00;;
19747;SDS011;10032;51.386;12.516;2023-06-04T00:31:19;4.70;;;1.83;;
19747;SDS011;10032;51.386;12.516;2023-06-04T00:33:46;2.70;;;1.97;;
19747;SDS011;10032;51.386;12.516;2023-06-04T00:36:11;1.87;;;1.57;;
19747;SDS011;10032;51.386;12.516;2023-06-04T00:38:37;1.73;;;1.40;;
19747;SDS011;10032;51.386;12.516;2023-06-04T00:41:02;6.37;;;2.03;;
19747;SDS011;10032;51.386;12.516;2023-06-04T00:43:28;2.10;;;2.00;;
19747;SDS011;10032;51.386;12.516;2023-06-04T00:45:56;1.63;;;1.53;;
19747;SDS011;10032;51.386;12.516;2023-06-04T00:48:22;1.87;;;1.63;;
19747;SDS011;10032;51.386;12.516;2023-06-04T00:50:48;2.00;;;1.80;;
19747;SDS011;10032;51.386;12.516;2023-06-04T00:53:14;3.57;;;2.00;;
19747;SDS011;10032;51.386;12.516;2023-06-04T00:55:42;2.87;;;2.20;;
19747;SDS011;10032;51.386;12.516;2023-06-04T00:58:08;2.67;;;2.07;;
19747;SDS011;10032;51.386;12.516;2023-06-04T01:00:34;1.90;;;1.73;;
19747;SDS011;10032;51.386;12.516;2023-06-04T01:03:02;1.93;;;1.67;;
19747;SDS011;10032;51.386;12.516;2023-06-04T01:05:40;1.67;;;1.57;;
19747;SDS011;10032;51.386;12.516;2023-06-04T01:08:12;2.23;;;1.87;;
19747;SDS011;10032;51.386;12.516;2023-06-04T01:10:49;1.97;;;1.77;;
19747;SDS011;10032;51.386;12.516;2023-06-04T01:13:21;3.23;;;1.90;;
19747;SDS011;10032;51.386;12.516;2023-06-04T01:15:47;2.37;;;2.00;;
19747;SDS011;10032;51.386;12.516;2023-06-04T01:18:14;1.70;;;1.60;;
19747;SDS011;10032;51.386;12.516;2023-06-04T01:21:02;2.87;;;1.93;;
19747;SDS011;10032;51.386;12.516;2023-06-04T01:26:03;2.30;;;1.90;;
19747;SDS011;10032;51.386;12.516;2023-06-04T01:28:30;2.47;;;1.80;;
19747;SDS011;10032;51.386;12.516;2023-06-04T01:30:57;2.10;;;1.77;;
19747;SDS011;10032;51.386;12.516;2023-06-04T01:33:24;2.50;;;1.73;;
19747;SDS011;10032;51.386;12.516;2023-06-04T01:35:50;2.70;;;2.10;;
19747;SDS011;10032;51.386;12.516;2023-06-04T01:38:16;1.97;;;1.77;;
19747;SDS011;10032;51.386;12.516;2023-06-04T01:40:42;1.90;;;1.60;;
19747;SDS011;10032;51.386;12.516;2023-06-04T01:43:08;2.13;;;1.40;;
19747;SDS011;10032;51.386;12.516;2023-06-04T01:45:33;2.00;;;1.80;;
19747;SDS011;10032;51.386;12.516;2023-06-04T01:48:00;2.50;;;1.83;;
19747;SDS011;10032;51.386;12.516;2023-06-04T01:50:27;3.27;;;2.07;;
19747;SDS011;10032;51.386;12.516;2023-06-04T01:52:53;2.17;;;1.63;;
19747;SDS011;10032;51.386;12.516;2023-06-04T01:55:18;2.07;;;1.67;;
19747;SDS011;10032;51.386;12.516;2023-06-04T01:57:44;2.10;;;1.93;;
19747;SDS011;10032;51.386;12.516;2023-06-04T02:00:11;1.80;;;1.70;;
19747;SDS011;10032;51.386;12.516;2023-06-04T02:02:37;2.40;;;2.07;;
19747;SDS011;10032;51.386;12.516;2023-06-04T02:05:04;2.67;;;2.10;;
19747;SDS011;10032;51.386;12.516;2023-06-04T02:07:33;2.70;;;1.77;;
19747;SDS011;10032;51.386;12.516;2023-06-04T02:09:59;2.03;;;1.80;;
19747;SDS011;10032;51.386;12.516;2023-06-04T02:12:25;4.10;;;1.90;;
19747;SDS011;10032;51.386;12.516;2023-06-04T02:14:50;2.73;;;2.00;;
19747;SDS011;10032;51.386;12.516;2023-06-04T02:17:16;3.00;;;2.20;;
19747;SDS011;10032;51.386;12.516;2023-06-04T02:19:44;2.77;;;2.30;;
19747;SDS011;10032;51.386;12.516;2023-06-04T02:22:18;3.33;;;2.70;;
19747;SDS011;10032;51.386;12.516;2023-06-04T02:24:44;8.40;;;3.20;;
19747;SDS011;10032;51.386;12.516;2023-06-04T02:27:11;4.43;;;2.50;;
19747;SDS011;10032;51.386;12.516;2023-06-04T02:29:37;3.97;;;3.20;;
19747;SDS011;10032;51.386;12.516;2023-06-04T02:32:04;3.33;;;2.87;;
19747;SDS011;10032;51.386;12.516;2023-06-04T02:34:30;4.43;;;3.03;;
19747;SDS011;10032;51.386;12.516;2023-06-04T02:36:55;4.47;;;2.90;;
19747;SDS011;10032;51.386;12.516;2023-06-04T02:39:21;3.30;;;3.00;;
19747;SDS011;10032;51.386;12.516;2023-06-04T02:41:47;3.77;;;3.20;;
19747;SDS011;10032;51.386;12.516;2023-06-04T02:44:12;5.37;;;3.03;;
19747;SDS011;10032;51.386;12.516;2023-06-04T02:46:37;5.00;;;3.80;;
19747;SDS011;10032;51.386;12.516;2023-06-04T02:49:03;3.60;;;3.20;;
19747;SDS011;10032;51.386;12.516;2023-06-04T02:51:29;3.37;;;3.00;;
19747;SDS011;10032;51.386;12.516;2023-06-04T02:53:55;4.57;;;3.13;;
19747;SDS011;10032;51.386;12.516;2023-06-04T02:56:20;3.57;;;3.27;;
19747;SDS011;10032;51.386;12.516;2023-06-04T02:58:52;3.50;;;3.20;;
19747;SDS011;10032;51.386;12.516;2023-06-04T03:01:21;5.10;;;3.20;;
19747;SDS011;10032;51.386;12.516;2023-06-04T03:03:50;3.80;;;3.40;;
19747;SDS011;10032;51.386;12.516;2023-06-04T03:06:16;8.93;;;3.90;;
19747;SDS011;10032;51.386;12.516;2023-06-04T03:08:45;5.07;;;3.70;;
19747;SDS011;10032;51.386;12.516;2023-06-04T03:11:11;5.23;;;3.80;;
19747;SDS011;10032;51.386;12.516;2023-06-04T03:13:37;4.23;;;3.40;;
19747;SDS011;10032;51.386;12.516;2023-06-04T03:16:03;5.30;;;3.87;;
19747;SDS011;10032;51.386;12.516;2023-06-04T03:18:28;5.27;;;3.50;;
19747;SDS011;10032;51.386;12.516;2023-06-04T03:20:54;4.67;;;3.90;;
19747;SDS011;10032;51.386;12.516;2023-06-04T03:23:20;3.73;;;3.30;;
19747;SDS011;10032;51.386;12.516;2023-06-04T03:25:46;3.20;;;2.90;;
19747;SDS011;10032;51.386;12.516;2023-06-04T03:28:11;4.30;;;3.87;;
19747;SDS011;10032;51.386;12.516;2023-06-04T03:30:37;5.37;;;4.07;;
19747;SDS011;10032;51.386;12.516;2023-06-04T03:33:03;3.87;;;3.03;;
19747;SDS011;10032;51.386;12.516;2023-06-04T03:35:28;4.00;;;3.60;;
19747;SDS011;10032;51.386;12.516;2023-06-04T03:37:54;4.60;;;3.40;;
19747;SDS011;10032;51.386;12.516;2023-06-04T03:40:19;4.30;;;3.43;;
19747;SDS011;10032;51.386;12.516;2023-06-04T03:42:45;4.23;;;3.80;;
19747;SDS011;10032;51.386;12.516;2023-06-04T03:45:10;6.43;;;4.07;;
19747;SDS011;10032;51.386;12.516;2023-06-04T03:47:37;3.30;;;3.00;;
19747;SDS011;10032;51.386;12.516;2023-06-04T03:50:03;5.17;;;3.90;;
19747;SDS011;10032;51.386;12.516;2023-06-04T03:52:29;3.17;;;2.97;;
19747;SDS011;10032;51.386;12.516;2023-06-04T03:54:55;5.37;;;3.80;;
19747;SDS011;10032;51.386;12.516;2023-06-04T03:57:21;4.37;;;3.70;;
19747;SDS011;10032;51.386;12.516;2023-06-04T03:59:46;6.10;;;3.80;;
19747;SDS011;10032;51.386;12.516;2023-06-04T04:02:12;4.57;;;3.70;;
19747;SDS011;10032;51.386;12.516;2023-06-04T04:04:37;4.83;;;4.43;;
19747;SDS011;10032;51.386;12.516;2023-06-04T04:07:02;4.07;;;3.67;;
19747;SDS011;10032;51.386;12.516;2023-06-04T04:09:28;4.00;;;3.60;;
19747;SDS011;10032;51.386;12.516;2023-06-04T04:11:53;5.20;;;4.20;;
19747;SDS011;10032;51.386;12.516;2023-06-04T04:14:18;4.17;;;3.77;;
19747;SDS011;10032;51.386;12.516;2023-06-04T04:16:44;6.30;;;4.20;;
19747;SDS011;10032;51.386;12.516;2023-06-04T04:19:10;5.03;;;3.77;;
19747;SDS011;10032;51.386;12.516;2023-06-04T04:21:36;5.03;;;3.50;;
19747;SDS011;10032;51.386;12.516;2023-06-04T04:24:03;4.93;;;3.83;;
19747;SDS011;10032;51.386;12.516;2023-06-04T04:26:29;3.77;;;3.47;;
19747;SDS011;10032;51.386;12.516;2023-06-04T04:28:55;5.17;;;3.67;;
19747;SDS011;10032;51.386;12.516;2023-06-04T04:31:25;3.97;;;3.53;;
19747;SDS011;10032;51.386;12.516;2023-06-04T04:33:52;5.57;;;3.53;;
19747;SDS011;10032;51.386;12.516;2023-06-04T04:36:19;3.30;;;3.00;;
19747;SDS011;10032;51.386;12.516;2023-06-04T04:38:44;4.03;;;3.17;;
19747;SDS011;10032;51.386;12.516;2023-06-04T04:41:19;4.20;;;3.10;;
19747;SDS011;10032;51.386;12.516;2023-06-04T04:43:47;3.50;;;2.90;;
19747;SDS011;10032;51.386;12.516;2023-06-04T04:46:13;4.20;;;3.10;;
19747;SDS011;10032;51.386;12.516;2023-06-04T04:48:38;3.37;;;3.00;;
19747;SDS011;10032;51.386;12.516;2023-06-04T04:51:05;3.90;;;3.07;;
19747;SDS011;10032;51.386;12.516;2023-06-04T04:53:31;4.77;;;3.00;;
19747;SDS011;10032;51.386;12.516;2023-06-04T04:55:56;4.73;;;3.10;;
19747;SDS011;10032;51.386;12.516;2023-06-04T04:58:22;3.50;;;2.70;;
19747;SDS011;10032;51.386;12.516;2023-06-04T05:00:47;4.47;;;2.80;;
19747;SDS011;10032;51.386;12.516;2023-06-04T05:03:13;4.63;;;2.73;;
19747;SDS011;10032;51.386;12.516;2023-06-04T05:05:39;3.53;;;2.67;;
19747;SDS011;10032;51.386;12.516;2023-06-04T05:08:04;4.13;;;2.87;;
19747;SDS011;10032;51.386;12.516;2023-06-04T05:10:30;3.17;;;2.80;;
19747;SDS011;10032;51.386;12.516;2023-06-04T05:12:56;2.90;;;2.53;;
19747;SDS011;10032;51.386;12.516;2023-06-04T05:15:24;2.80;;;2.60;;
19747;SDS011;10032;51.386;12.516;2023-06-04T05:17:51;4.37;;;2.20;;
19747;SDS011;10032;51.386;12.516;2023-06-04T05:20:18;2.97;;;2.47;;
19747;SDS011;10032;51.386;12.516;2023-06-04T05:22:44;2.57;;;2.37;;
19747;SDS011;10032;51.386;12.516;2023-06-04T05:25:10;3.13;;;2.70;;
19747;SDS011;10032;51.386;12.516;2023-06-04T05:27:36;2.60;;;2.40;;
19747;SDS011;10032;51.386;12.516;2023-06-04T05:30:02;2.47;;;2.27;;
19747;SDS011;10032;51.386;12.516;2023-06-04T05:32:30;2.40;;;2.20;;
19747;SDS011;10032;51.386;12.516;2023-06-04T05:34:57;2.45;;;2.25;;
19747;SDS011;10032;51.386;12.516;2023-06-04T05:37:24;9.60;;;2.28;;
19747;SDS011;10032;51.386;12.516;2023-06-04T05:39:52;2.95;;;2.63;;
19747;SDS011;10032;51.386;12.516;2023-06-04T05:42:18;2.70;;;2.33;;
19747;SDS011;10032;51.386;12.516;2023-06-04T05:44:43;2.67;;;2.47;;
19747;SDS011;10032;51.386;12.516;2023-06-04T05:47:09;5.03;;;2.55;;
19747;SDS011;10032;51.386;12.516;2023-06-04T05:49:34;2.50;;;2.03;;
19747;SDS011;10032;51.386;12.516;2023-06-04T05:52:00;2.28;;;2.03;;
19747;SDS011;10032;51.386;12.516;2023-06-04T05:54:26;2.72;;;2.00;;
19747;SDS011;10032;51.386;12.516;2023-06-04T05:56:55;3.20;;;2.28;;
19747;SDS011;10032;51.386;12.516;2023-06-04T05:59:20;2.97;;;2.15;;
19747;SDS011;10032;51.386;12.516;2023-06-04T06:01:46;2.42;;;2.22;;
19747;SDS011;10032;51.386;12.516;2023-06-04T06:04:13;2.30;;;2.03;;
19747;SDS011;10032;51.386;12.516;2023-06-04T06:06:38;2.10;;;1.90;;
19747;SDS011;10032;51.386;12.516;2023-06-04T06:09:04;2.42;;;2.22;;
19747;SDS011;10032;51.386;12.516;2023-06-04T06:11:30;2.58;;;2.00;;
19747;SDS011;10032;51.386;12.516;2023-06-04T06:13:56;1.70;;;1.60;;
19747;SDS011;10032;51.386;12.516;2023-06-04T06:16:21;2.70;;;1.88;;
19747;SDS011;10032;51.386;12.516;2023-06-04T06:18:47;1.75;;;1.65;;
19747;SDS011;10032;51.386;12.516;2023-06-04T06:21:12;2.15;;;1.70;;
19747;SDS011;10032;51.386;12.516;2023-06-04T06:23:38;1.73;;;1.63;;
19747;SDS011;10032;51.386;12.516;2023-06-04T06:26:03;2.03;;;1.83;;
19747;SDS011;10032;51.386;12.516;2023-06-04T06:28:33;2.60;;;1.73;;
19747;SDS011;10032;51.386;12.516;2023-06-04T06:30:58;2.70;;;1.75;;
19747;SDS011;10032;51.386;12.516;2023-06-04T06:33:24;1.85;;;1.73;;
19747;SDS011;10032;51.386;12.516;2023-06-04T06:35:49;1.75;;;1.63;;
19747;SDS011;10032;51.386;12.516;2023-06-04T06:38:15;4.20;;;1.88;;
19747;SDS011;10032;51.386;12.516;2023-06-04T06:40:40;2.50;;;1.73;;
19747;SDS011;10032;51.386;12.516;2023-06-04T06:43:06;1.95;;;1.70;;
19747;SDS011;10032;51.386;12.516;2023-06-04T06:45:31;2.03;;;1.70;;
19747;SDS011;10032;51.386;12.516;2023-06-04T06:47:57;1.90;;;1.67;;
19747;SDS011;10032;51.386;12.516;2023-06-04T06:50:22;1.80;;;1.70;;
19747;SDS011;10032;51.386;12.516;2023-06-04T06:52:47;3.17;;;1.80;;
19747;SDS011;10032;51.386;12.516;2023-06-04T06:55:14;3.25;;;1.75;;
19747;SDS011;10032;51.386;12.516;2023-06-04T06:57:40;2.58;;;1.73;;
19747;SDS011;10032;51.386;12.516;2023-06-04T07:00:06;1.65;;;1.55;;
19747;SDS011;10032;51.386;12.516;2023-06-04T07:02:32;2.08;;;1.58;;
19747;SDS011;10032;51.386;12.516;2023-06-04T07:04:57;1.90;;;1.70;;
19747;SDS011;10032;51.386;12.516;2023-06-04T07:07:23;2.50;;;1.58;;
19747;SDS011;10032;51.386;12.516;2023-06-04T07:09:48;2.05;;;1.67;;
19747;SDS011;10032;51.386;12.516;2023-06-04T07:12:14;1.80;;;1.50;;
19747;SDS011;10032;51.386;12.516;2023-06-04T07:14:39;2.78;;;1.48;;
19747;SDS011;10032;51.386;12.516;2023-06-04T07:17:05;1.88;;;1.27;;
19747;SDS011;10032;51.386;12.516;2023-06-04T07:19:30;1.88;;;1.70;;
19747;SDS011;10032;51.386;12.516;2023-06-04T07:21:56;1.33;;;1.23;;
19747;SDS011;10032;51.386;12.516;2023-06-04T07:24:21;2.17;;;1.58;;
19747;SDS011;10032;51.386;12.516;2023-06-04T07:26:47;1.33;;;1.15;;
19747;SDS011;10032;51.386;12.516;2023-06-04T07:29:13;1.48;;;1.38;;
19747;SDS011;10032;51.386;12.516;2023-06-04T07:31:38;1.40;;;1.30;;
19747;SDS011;10032;51.386;12.516;2023-06-04T07:34:04;1.23;;;1.13;;
19747;SDS011;10032;51.386;12.516;2023-06-04T07:36:29;1.48;;;1.25;;
19747;SDS011;10032;51.386;12.516;2023-06-04T07:38:56;2.60;;;1.50;;
19747;SDS011;10032;51.386;12.516;2023-06-04T07:41:21;2.05;;;1.42;;
19747;SDS011;10032;51.386;12.516;2023-06-04T07:43:47;1.67;;;1.42;;
19747;SDS011;10032;51.386;12.516;2023-06-04T07:46:12;2.42;;;1.52;;
19747;SDS011;10032;51.386;12.516;2023-06-04T07:48:38;1.50;;;1.40;;
19747;SDS011;10032;51.386;12.516;2023-06-04T07:51:04;1.50;;;1.30;;
19747;SDS011;10032;51.386;12.516;2023-06-04T07:53:29;2.38;;;1.90;;
19747;SDS011;10032;51.386;12.516;2023-06-04T07:55:55;4.55;;;1.70;;
19747;SDS011;10032;51.386;12.516;2023-06-04T07:58:21;2.80;;;1.67;;
19747;SDS011;10032;51.386;12.516;2023-06-04T08:00:47;1.60;;;1.13;;
19747;SDS011;10032;51.386;12.516;2023-06-04T08:03:12;1.63;;;1.20;;
19747;SDS011;10032;51.386;12.516;2023-06-04T08:05:37;1.98;;;1.15;;
19747;SDS011;10032;51.386;12.516;2023-06-04T08:08:03;1.38;;;1.20;;
19747;SDS011;10032;51.386;12.516;2023-06-04T08:10:29;1.65;;;1.10;;
19747;SDS011;10032;51.386;12.516;2023-06-04T08:12:55;2.88;;;1.45;;
19747;SDS011;10032;51.386;12.516;2023-06-04T08:15:21;1.38;;;1.27;;
19747;SDS011;10032;51.386;12.516;2023-06-04T08:17:46;1.55;;;1.42;;
19747;SDS011;10032;51.386;12.516;2023-06-04T08:20:11;1.42;;;1.33;;
19747;SDS011;10032;51.386;12.516;2023-06-04T08:22:37;2.65;;;1.23;;
19747;SDS011;10032;51.386;12.516;2023-06-04T08:25:03;1.08;;;0.98;;
19747;SDS011;10032;51.386;12.516;2023-06-04T08:27:29;1.83;;;1.05;;
19747;SDS011;10032;51.386;12.516;2023-06-04T08:29:56;1.77;;;0.90;;
19747;SDS011;10032;51.386;12.516;2023-06-04T08:32:22;1.23;;;1.13;;
19747;SDS011;10032;51.386;12.516;2023-06-04T08:34:48;0.80;;;0.80;;
19747;SDS011;10032;51.386;12.516;2023-06-04T08:37:13;0.85;;;0.77;;
19747;SDS011;10032;51.386;12.516;2023-06-04T08:39:38;0.80;;;0.80;;
19747;SDS011;10032;51.386;12.516;2023-06-04T08:42:06;1.85;;;1.13;;
19747;SDS011;10032;51.386;12.516;2023-06-04T08:44:32;3.70;;;2.58;;
19747;SDS011;10032;51.386;12.516;2023-06-04T08:47:04;1.63;;;1.20;;
19747;SDS011;10032;51.386;12.516;2023-06-04T08:49:34;1.20;;;0.93;;
19747;SDS011;10032;51.386;12.516;2023-06-04T08:52:03;0.98;;;0.98;;
19747;SDS011;10032;51.386;12.516;2023-06-04T08:54:30;1.10;;;0.73;;
19747;SDS011;10032;51.386;12.516;2023-06-04T08:56:57;1.63;;;1.13;;
19747;SDS011;10032;51.386;12.516;2023-06-04T08:59:23;1.38;;;1.08;;
19747;SDS011;10032;51.386;12.516;2023-06-04T09:01:51;3.33;;;1.40;;
19747;SDS011;10032;51.386;12.516;2023-06-04T09:04:18;2.05;;;1.38;;
19747;SDS011;10032;51.386;12.516;2023-06-04T09:06:47;1.55;;;1.30;;
19747;SDS011;10032;51.386;12.516;2023-06-04T09:09:13;1.98;;;1.10;;
19747;SDS011;10032;51.386;12.516;2023-06-04T09:11:49;1.48;;;1.38;;
19747;SDS011;10032;51.386;12.516;2023-06-04T09:14:17;0.60;;;0.60;;
19747;SDS011;10032;51.386;12.516;2023-06-04T09:16:43;1.08;;;1.08;;
19747;SDS011;10032;51.386;12.516;2023-06-04T09:19:09;2.05;;;1.08;;
19747;SDS011;10032;51.386;12.516;2023-06-04T09:21:45;3.47;;;1.45;;
19747;SDS011;10032;51.386;12.516;2023-06-04T09:24:24;1.63;;;1.27;;
19747;SDS011;10032;51.386;12.516;2023-06-04T09:27:09;0.88;;;0.88;;
19747;SDS011;10032;51.386;12.516;2023-06-04T09:29:36;1.33;;;0.90;;
19747;SDS011;10032;51.386;12.516;2023-06-04T09:32:01;2.13;;;1.25;;
19747;SDS011;10032;51.386;12.516;2023-06-04T09:34:30;1.67;;;1.20;;
19747;SDS011;10032;51.386;12.516;2023-06-04T09:36:56;1.70;;;0.88;;
19747;SDS011;10032;51.386;12.516;2023-06-04T09:39:22;0.60;;;0.60;;
19747;SDS011;10032;51.386;12.516;2023-06-04T09:42:01;3.10;;;1.20;;
19747;SDS011;10032;51.386;12.516;2023-06-04T09:44:28;1.02;;;0.80;;
19747;SDS011;10032;51.386;12.516;2023-06-04T09:46:55;1.27;;;0.90;;
19747;SDS011;10032;51.386;12.516;2023-06-04T09:49:21;1.15;;;1.05;;
19747;SDS011;10032;51.386;12.516;2023-06-04T09:51:47;1.65;;;1.52;;
19747;SDS011;10032;51.386;12.516;2023-06-04T09:54:13;3.67;;;3.38;;
19747;SDS011;10032;51.386;12.516;2023-06-04T09:56:39;1.75;;;1.20;;
19747;SDS011;10032;51.386;12.516;2023-06-04T09:59:05;1.80;;;0.98;;
19747;SDS011;10032;51.386;12.516;2023-06-04T10:01:34;1.00;;;0.82;;
19747;SDS011;10032;51.386;12.516;2023-06-04T10:04:03;2.60;;;1.20;;
19747;SDS011;10032;51.386;12.516;2023-06-04T10:06:33;1.80;;;0.70;;
19747;SDS011;10032;51.386;12.516;2023-06-04T10:09:04;1.45;;;0.98;;
19747;SDS011;10032;51.386;12.516;2023-06-04T10:11:39;1.10;;;1.00;;
19747;SDS011;10032;51.386;12.516;2023-06-04T10:14:22;0.77;;;0.68;;
19747;SDS011;10032;51.386;12.516;2023-06-04T10:16:50;1.27;;;1.10;;
19747;SDS011;10032;51.386;12.516;2023-06-04T10:19:18;1.20;;;1.00;;
19747;SDS011;10032;51.386;12.516;2023-06-04T10:21:44;1.80;;;1.35;;
19747;SDS011;10032;51.386;12.516;2023-06-04T10:24:10;0.60;;;0.60;;
19747;SDS011;10032;51.386;12.516;2023-06-04T10:26:37;1.50;;;1.00;;
19747;SDS011;10032;51.386;12.516;2023-06-04T10:29:05;1.77;;;1.25;;
19747;SDS011;10032;51.386;12.516;2023-06-04T10:31:31;1.02;;;0.98;;
19747;SDS011;10032;51.386;12.516;2023-06-04T10:33:57;1.05;;;0.80;;
19747;SDS011;10032;51.386;12.516;2023-06-04T10:36:24;3.15;;;1.05;;
19747;SDS011;10032;51.386;12.516;2023-06-04T10:38:53;1.10;;;0.80;;
19747;SDS011;10032;51.386;12.516;2023-06-04T10:41:21;1.10;;;0.90;;
19747;SDS011;10032;51.386;12.516;2023-06-04T10:43:48;1.73;;;1.00;;
19747;SDS011;10032;51.386;12.516;2023-06-04T10:46:18;1.33;;;0.85;;
19747;SDS011;10032;51.386;12.516;2023-06-04T10:48:51;1.85;;;0.95;;
19747;SDS011;10032;51.386;12.516;2023-06-04T10:53:56;0.98;;;0.98;;
19747;SDS011;10032;51.386;12.516;2023-06-04T10:56:31;1.42;;;1.10;;
19747;SDS011;10032;51.386;12.516;2023-06-04T10:58:59;3.67;;;1.27;;
19747;SDS011;10032;51.386;12.516;2023-06-04T11:01:28;1.30;;;1.00;;
19747;SDS011;10032;51.386;12.516;2023-06-04T11:03:55;1.17;;;1.05;;
19747;SDS011;10032;51.386;12.516;2023-06-04T11:06:21;1.08;;;0.82;;
19747;SDS011;10032;51.386;12.516;2023-06-04T11:08:47;1.85;;;1.45;;
19747;SDS011;10032;51.386;12.516;2023-06-04T11:11:16;2.05;;;1.10;;
19747;SDS011;10032;51.386;12.516;2023-06-04T11:13:42;1.65;;;1.13;;
19747;SDS011;10032;51.386;12.516;2023-06-04T11:16:15;1.80;;;0.88;;
19747;SDS011;10032;51.386;12.516;2023-06-04T11:18:42;1.27;;;1.17;;
19747;SDS011;10032;51.386;12.516;2023-06-04T11:21:07;1.23;;;1.13;;
19747;SDS011;10032;51.386;12.516;2023-06-04T11:23:33;0.80;;;0.80;;
19747;SDS011;10032;51.386;12.516;2023-06-04T11:25:58;1.15;;;0.90;;
19747;SDS011;10032;51.386;12.516;2023-06-04T11:28:24;0.90;;;0.90;;
19747;SDS011;10032;51.386;12.516;2023-06-04T11:30:57;0.70;;;0.70;;
19747;SDS011;10032;51.386;12.516;2023-06-04T11:33:43;1.48;;;1.20;;
19747;SDS011;10032;51.386;12.516;2023-06-04T11:36:10;1.42;;;0.98;;
19747;SDS011;10032;51.386;12.516;2023-06-04T11:38:36;1.00;;;0.95;;
19747;SDS011;10032;51.386;12.516;2023-06-04T11:41:01;0.70;;;0.70;;
19747;SDS011;10032;51.386;12.516;2023-06-04T11:43:29;0.80;;;0.80;;
19747;SDS011;10032;51.386;12.516;2023-06-04T11:45:57;1.70;;;1.02;;
19747;SDS011;10032;51.386;12.516;2023-06-04T11:48:23;1.27;;;1.17;;
19747;SDS011;10032;51.386;12.516;2023-06-04T11:50:48;0.80;;;0.80;;
19747;SDS011;10032;51.386;12.516;2023-06-04T11:53:14;0.75;;;0.75;;
19747;SDS011;10032;51.386;12.516;2023-06-04T11:55:39;1.20;;;1.10;;
19747;SDS011;10032;51.386;12.516;2023-06-04T11:58:06;1.02;;;0.90;;
19747;SDS011;10032;51.386;12.516;2023-06-04T12:00:31;1.23;;;0.90;;
19747;SDS011;10032;51.386;12.516;2023-06-04T12:02:57;1.60;;;1.20;;
19747;SDS011;10032;51.386;12.516;2023-06-04T12:05:23;0.80;;;0.80;;
19747;SDS011;10032;51.386;12.516;2023-06-04T12:08:03;1.10;;;1.00;;
19747;SDS011;10032;51.386;12.516;2023-06-04T12:10:41;1.30;;;1.20;;
19747;SDS011;10032;51.386;12.516;2023-06-04T12:13:07;1.20;;;1.00;;
19747;SDS011;10032;51.386;12.516;2023-06-04T12:15:33;1.10;;;1.00;;
19747;SDS011;10032;51.386;12.516;2023-06-04T12:17:58;1.55;;;1.13;;
19747;SDS011;10032;51.386;12.516;2023-06-04T12:20:31;3.22;;;1.05;;
19747;SDS011;10032;51.386;12.516;2023-06-04T12:22:57;3.85;;;1.20;;
19747;SDS011;10032;51.386;12.516;2023-06-04T12:25:23;1.90;;;1.00;;
19747;SDS011;10032;51.386;12.516;2023-06-04T12:27:52;1.70;;;1.10;;
19747;SDS011;10032;51.386;12.516;2023-06-04T12:30:18;1.30;;;0.98;;
19747;SDS011;10032;51.386;12.516;2023-06-04T12:32:43;0.80;;;0.73;;
19747;SDS011;10032;51.386;12.516;2023-06-04T12:35:10;1.48;;;1.00;;
19747;SDS011;10032;51.386;12.516;2023-06-04T12:37:35;1.10;;;0.98;;
19747;SDS011;10032;51.386;12.516;2023-06-04T12:40:01;1.27;;;1.08;;
19747;SDS011;10032;51.386;12.516;2023-06-04T12:42:27;1.35;;;0.82;;
19747;SDS011;10032;51.386;12.516;2023-06-04T12:44:54;0.82;;;0.82;;
19747;SDS011;10032;51.386;12.516;2023-06-04T12:47:19;1.13;;;1.02;;
19747;SDS011;10032;51.386;12.516;2023-06-04T12:49:46;1.10;;;1.00;;
19747;SDS011;10032;51.386;12.516;2023-06-04T12:52:11;1.58;;;1.10;;
19747;SDS011;10032;51.386;12.516;2023-06-04T12:54:39;1.27;;;0.90;;
19747;SDS011;10032;51.386;12.516;2023-06-04T12:57:05;1.73;;;1.52;;
19747;SDS011;10032;51.386;12.516;2023-06-04T12:59:30;2.05;;;1.20;;
19747;SDS011;10032;51.386;12.516;2023-06-04T13:01:56;1.25;;;1.15;;
19747;SDS011;10032;51.386;12.516;2023-06-04T13:04:22;2.35;;;1.13;;
19747;SDS011;10032;51.386;12.516;2023-06-04T13:06:49;2.00;;;1.02;;
19747;SDS011;10032;51.386;12.516;2023-06-04T13:09:14;1.75;;;0.80;;
19747;SDS011;10032;51.386;12.516;2023-06-04T13:11:42;1.35;;;1.25;;
19747;SDS011;10032;51.386;12.516;2023-06-04T13:14:08;1.05;;;0.95;;
19747;SDS011;10032;51.386;12.516;2023-06-04T13:16:35;1.20;;;1.10;;
19747;SDS011;10032;51.386;12.516;2023-06-04T13:19:01;0.95;;;0.88;;
19747;SDS011;10032;51.386;12.516;2023-06-04T13:21:26;1.42;;;1.05;;
19747;SDS011;10032;51.386;12.516;2023-06-04T13:23:52;0.80;;;0.80;;
19747;SDS011;10032;51.386;12.516;2023-06-04T13:26:18;1.20;;;1.10;;
19747;SDS011;10032;51.386;12.516;2023-06-04T13:28:43;1.45;;;1.25;;
19747;SDS011;10032;51.386;12.516;2023-06-04T13:31:09;1.20;;;1.10;;
19747;SDS011;10032;51.386;12.516;2023-06-04T13:33:35;1.77;;;1.25;;
19747;SDS011;10032;51.386;12.516;2023-06-04T13:36:04;1.55;;;0.90;;
19747;SDS011;10032;51.386;12.516;2023-06-04T13:38:31;1.20;;;1.10;;
19747;SDS011;10032;51.386;12.516;2023-06-04T13:40:57;1.10;;;1.00;;
19747;SDS011;10032;51.386;12.516;2023-06-04T13:43:22;1.20;;;1.10;;
19747;SDS011;10032;51.386;12.516;2023-06-04T13:45:47;0.90;;;0.90;;
19747;SDS011;10032;51.386;12.516;2023-06-04T13:48:13;2.17;;;1.27;;
19747;SDS011;10032;51.386;12.516;2023-06-04T13:50:38;1.73;;;1.20;;
19747;SDS011;10032;51.386;12.516;2023-06-04T13:53:04;0.93;;;0.90;;
19747;SDS011;10032;51.386;12.516;2023-06-04T13:55:30;2.28;;;1.10;;
19747;SDS011;10032;51.386;12.516;2023-06-04T13:57:55;0.70;;;0.70;;
19747;SDS011;10032;51.386;12.516;2023-06-04T14:00:21;1.08;;;1.00;;
19747;SDS011;10032;51.386;12.516;2023-06-04T14:02:49;1.20;;;1.10;;
19747;SDS011;10032;51.386;12.516;2023-06-04T14:05:15;1.10;;;1.00;;
19747;SDS011;10032;51.386;12.516;2023-06-04T14:07:41;1.85;;;0.90;;
19747;SDS011;10032;51.386;12.516;2023-06-04T14:10:08;4.38;;;1.17;;
19747;SDS011;10032;51.386;12.516;2023-06-04T14:12:35;0.95;;;0.85;;
19747;SDS011;10032;51.386;12.516;2023-06-04T14:15:01;1.42;;;1.33;;
19747;SDS011;10032;51.386;12.516;2023-06-04T14:17:26;1.55;;;1.10;;
19747;SDS011;10032;51.386;12.516;2023-06-04T14:19:52;1.00;;;0.82;;
19747;SDS011;10032;51.386;12.516;2023-06-04T14:22:17;1.27;;;1.17;;
19747;SDS011;10032;51.386;12.516;2023-06-04T14:24:42;1.27;;;1.02;;
19747;SDS011;10032;51.386;12.516;2023-06-04T14:27:08;1.10;;;1.00;;
19747;SDS011;10032;51.386;12.516;2023-06-04T14:29:37;1.75;;;1.25;;
19747;SDS011;10032;51.386;12.516;2023-06-04T14:32:03;1.20;;;1.10;;
19747;SDS011;10032;51.386;12.516;2023-06-04T14:34:29;0.70;;;0.70;;
19747;SDS011;10032;51.386;12.516;2023-06-04T14:36:57;1.58;;;1.00;;